createdAt,value
2018-12-25T01:19:03.735Z,1.10
2018-12-25T01:21:19.960Z,1.40
2018-12-25T01:23:36.189Z,1.10
2018-12-25T01:25:52.132Z,1.20
2018-12-25T01:28:09.232Z,1.40
2018-12-25T01:32:43.053Z,1.40
2018-12-25T01:37:16.975Z,1.20
2018-12-25T01:39:33.184Z,1.37
2018-12-25T01:41:49.787Z,1.40
2018-12-25T01:44:05.993Z,1.13
2018-12-25T01:46:22.546Z,1.10
2018-12-25T01:48:38.887Z,1.60
2018-12-25T01:50:55.312Z,1.50
2018-12-25T01:53:11.767Z,1.50
2018-12-25T01:55:28.028Z,1.70
2018-12-25T01:57:44.706Z,1.17
2018-12-25T02:00:01.396Z,1.40
2018-12-25T02:02:17.282Z,1.10
2018-12-25T02:04:33.371Z,1.30
2018-12-25T02:06:49.490Z,1.00
2018-12-25T02:09:05.735Z,1.30
2018-12-25T02:11:22.179Z,1.27
2018-12-25T02:13:38.663Z,1.20
2018-12-25T02:18:12.428Z,1.20
2018-12-25T02:20:28.786Z,1.73
2018-12-25T02:22:44.895Z,1.23
2018-12-25T02:25:01.355Z,1.40
2018-12-25T02:27:17.087Z,1.10
2018-12-25T02:29:32.665Z,1.20
2018-12-25T02:31:49.700Z,1.30
2018-12-25T02:34:05.373Z,1.20
2018-12-25T02:36:20.952Z,1.10
2018-12-25T02:38:37.288Z,1.40
2018-12-25T02:40:52.172Z,1.10
2018-12-25T02:43:15.844Z,1.20
2018-12-25T02:45:39.522Z,1.40
2018-12-25T02:48:03.788Z,1.20
2018-12-25T02:50:27.232Z,1.60
2018-12-25T02:55:19.793Z,1.03
2018-12-25T03:00:28.292Z,1.10
2018-12-25T03:05:36.807Z,1.20
2018-12-25T03:08:00.849Z,1.30
2018-12-25T03:12:47.655Z,1.37
2018-12-25T03:15:03.368Z,1.20
2018-12-25T03:17:20.014Z,1.20
2018-12-25T03:19:35.892Z,1.50
2018-12-25T03:21:52.271Z,1.47
2018-12-25T03:24:08.696Z,1.57
2018-12-25T03:26:25.299Z,1.30
2018-12-25T03:28:41.612Z,1.40
2018-12-25T03:30:57.596Z,1.23
2018-12-25T03:33:13.665Z,1.20
2018-12-25T03:35:29.998Z,1.50
2018-12-25T03:37:46.227Z,1.10
2018-12-25T03:40:02.834Z,1.27
2018-12-25T03:42:19.227Z,1.30
2018-12-25T03:44:35.912Z,1.30
2018-12-25T03:46:52.231Z,1.17
2018-12-25T03:49:07.944Z,1.40
2018-12-25T03:51:24.800Z,1.10
2018-12-25T03:53:41.234Z,1.20
2018-12-25T03:55:57.501Z,1.37
2018-12-25T03:58:14.228Z,1.60
2018-12-25T04:00:30.124Z,1.30
2018-12-25T04:02:45.721Z,1.40
2018-12-25T04:05:02.157Z,1.40
2018-12-25T04:07:18.372Z,1.33
2018-12-25T04:09:34.099Z,1.60
2018-12-25T04:11:50.381Z,1.40
2018-12-25T04:14:05.967Z,1.10
2018-12-25T04:16:22.529Z,1.30
2018-12-25T04:18:38.234Z,1.40
2018-12-25T04:20:54.709Z,1.20
2018-12-25T04:23:10.495Z,1.20
2018-12-25T04:25:26.506Z,1.30
2018-12-25T04:27:42.470Z,1.50
2018-12-25T04:29:58.278Z,1.60
2018-12-25T04:32:14.371Z,1.30
2018-12-25T04:34:30.375Z,1.43
2018-12-25T04:36:47.228Z,1.23
2018-12-25T04:39:03.064Z,1.20
2018-12-25T04:43:36.737Z,1.70
2018-12-25T04:45:53.446Z,1.13
2018-12-25T04:48:09.684Z,1.50
2018-12-25T04:50:29.445Z,1.40
2018-12-25T04:52:43.063Z,1.50
2018-12-25T04:54:59.883Z,1.60
2018-12-25T04:57:16.436Z,1.30
2018-12-25T04:59:33.094Z,1.30
2018-12-25T05:01:49.354Z,1.20
2018-12-25T05:04:05.828Z,1.73
2018-12-25T05:06:21.971Z,1.30
2018-12-25T05:08:38.571Z,1.25
2018-12-25T05:10:55.103Z,1.40
2018-12-25T05:13:10.951Z,1.50
2018-12-25T05:15:26.972Z,1.20
2018-12-25T05:17:43.044Z,1.60
2018-12-25T05:19:59.647Z,1.40
2018-12-25T05:22:15.621Z,1.20
2018-12-25T05:24:32.019Z,1.20
2018-12-25T05:26:47.759Z,1.30
2018-12-25T05:29:04.080Z,1.10
2018-12-25T05:31:20.247Z,1.40
2018-12-25T05:33:37.199Z,1.30
2018-12-25T05:35:53.989Z,1.55
2018-12-25T05:38:09.999Z,1.80
2018-12-25T05:40:25.738Z,1.47
2018-12-25T05:42:42.000Z,1.40
2018-12-25T05:44:58.553Z,1.20
2018-12-25T05:47:14.895Z,1.50
2018-12-25T05:51:48.225Z,1.30
2018-12-25T05:54:04.556Z,1.40
2018-12-25T05:56:20.480Z,1.50
2018-12-25T05:58:36.781Z,1.60
2018-12-25T06:03:10.629Z,1.50
2018-12-25T06:05:27.231Z,1.20
2018-12-25T06:07:43.164Z,1.30
2018-12-25T06:09:59.359Z,1.23
2018-12-25T06:12:15.834Z,1.20
2018-12-25T06:14:31.552Z,1.50
2018-12-25T06:16:47.336Z,1.40
2018-12-25T06:19:03.485Z,1.70
2018-12-25T06:21:19.276Z,1.20
2018-12-25T06:23:35.183Z,1.25
2018-12-25T06:25:51.001Z,1.30
2018-12-25T06:28:06.619Z,1.23
2018-12-25T06:30:22.347Z,1.30
2018-12-25T06:32:37.804Z,1.27
2018-12-25T06:34:54.200Z,1.10
2018-12-25T06:37:09.831Z,1.20
2018-12-25T06:39:25.587Z,1.20
2018-12-25T06:41:41.243Z,1.40
2018-12-25T06:43:55.935Z,1.30
2018-12-25T06:46:19.015Z,1.50
2018-12-25T06:48:42.588Z,1.10
2018-12-25T06:51:05.923Z,1.30
2018-12-25T06:53:29.144Z,0.93
2018-12-25T06:55:52.803Z,1.20
2018-12-25T06:58:16.175Z,1.70
2018-12-25T07:03:23.794Z,1.47
2018-12-25T07:06:01.134Z,1.40
2018-12-25T07:08:14.587Z,1.50
2018-12-25T07:10:37.875Z,1.30
2018-12-25T07:13:01.105Z,1.57
2018-12-25T07:15:32.814Z,1.20
2018-12-25T07:17:49.509Z,1.53
2018-12-25T07:20:13.376Z,1.30
2018-12-25T07:22:36.903Z,1.50
2018-12-25T07:25:00.351Z,1.47
2018-12-25T07:27:05.027Z,1.50
2018-12-25T07:31:57.575Z,1.53
2018-12-25T07:34:21.408Z,1.40
2018-12-25T07:36:44.715Z,1.02
2018-12-25T07:41:36.813Z,1.30
2018-12-25T07:44:00.976Z,1.50
2018-12-25T07:46:17.196Z,1.63
2018-12-25T07:48:33.420Z,1.50
2018-12-25T07:50:49.867Z,1.67
2018-12-25T07:53:06.432Z,1.60
2018-12-25T07:55:22.787Z,1.40
2018-12-25T07:57:38.916Z,1.20
2018-12-25T07:59:55.316Z,1.47
2018-12-25T08:02:11.911Z,1.33
2018-12-25T08:04:27.894Z,1.50
2018-12-25T08:06:43.505Z,1.43
2018-12-25T08:09:00.779Z,1.42
2018-12-25T08:11:17.651Z,1.30
2018-12-25T08:13:33.653Z,1.80
2018-12-25T08:15:49.523Z,1.50
2018-12-25T08:18:05.679Z,1.50
2018-12-25T08:20:21.605Z,1.23
2018-12-25T08:22:38.081Z,1.30
2018-12-25T08:24:54.479Z,1.35
2018-12-25T08:27:09.526Z,1.43
2018-12-25T08:34:33.501Z,1.10
2018-12-25T08:36:57.340Z,1.70
2018-12-25T08:39:20.771Z,1.27
2018-12-25T08:41:44.393Z,1.60
2018-12-25T08:44:07.646Z,1.80
2018-12-25T08:49:01.100Z,1.30
2018-12-25T08:51:24.131Z,1.10
2018-12-25T08:53:47.744Z,1.30
2018-12-25T08:56:11.057Z,1.10
2018-12-25T08:58:34.287Z,1.30
2018-12-25T09:03:27.423Z,1.50
2018-12-25T09:05:51.488Z,1.50
2018-12-25T09:10:44.066Z,1.40
2018-12-25T09:13:07.120Z,1.80
2018-12-25T09:18:00.623Z,1.10
2018-12-25T09:20:24.391Z,1.00
2018-12-25T09:25:17.808Z,1.40
2018-12-25T09:27:52.893Z,1.80
2018-12-25T09:30:06.499Z,1.20
2018-12-25T09:32:29.810Z,1.30
2018-12-25T09:34:53.119Z,1.60
2018-12-25T09:37:16.931Z,1.50
2018-12-25T09:39:39.987Z,1.90
2018-12-25T09:42:03.619Z,1.73
2018-12-25T09:44:26.844Z,1.30
2018-12-25T09:49:34.985Z,1.40
2018-12-25T09:57:11.391Z,1.27
2018-12-25T09:59:35.149Z,1.50
2018-12-25T10:01:58.819Z,2.00
2018-12-25T10:04:22.384Z,1.30
2018-12-25T10:09:30.563Z,1.03
2018-12-25T10:11:53.987Z,1.80
2018-12-25T10:14:17.843Z,2.10
2018-12-25T10:19:08.229Z,1.40
2018-12-25T10:21:24.576Z,1.10
2018-12-25T10:23:41.151Z,1.70
2018-12-25T10:25:57.205Z,1.53
2018-12-25T10:28:13.793Z,1.40
2018-12-25T10:30:30.479Z,1.80
2018-12-25T10:32:46.829Z,1.57
2018-12-25T10:35:03.982Z,1.50
2018-12-25T10:37:20.096Z,1.43
2018-12-25T10:39:35.695Z,1.40
2018-12-25T10:41:51.063Z,1.65
2018-12-25T10:44:14.851Z,1.55
2018-12-25T10:46:38.343Z,1.70
2018-12-25T10:51:43.184Z,1.30
2018-12-25T10:53:56.908Z,1.50
2018-12-25T10:58:48.884Z,1.83
2018-12-25T11:01:17.720Z,1.30
2018-12-25T11:03:40.776Z,1.60
2018-12-25T11:06:04.545Z,1.67
2018-12-25T11:10:56.921Z,1.77
2018-12-25T11:13:20.189Z,1.83
2018-12-25T11:15:43.944Z,1.80
2018-12-25T11:18:07.291Z,2.00
2018-12-25T11:20:31.108Z,2.00
2018-12-25T11:22:47.683Z,1.77
2018-12-25T11:25:03.972Z,2.17
2018-12-25T11:27:20.072Z,2.00
2018-12-25T11:29:36.608Z,1.97
2018-12-25T11:31:52.398Z,2.10
2018-12-25T11:34:08.833Z,2.30
2018-12-25T11:36:25.052Z,1.90
2018-12-25T11:38:41.813Z,2.20
2018-12-25T11:40:58.616Z,3.10
2018-12-25T11:43:15.244Z,2.10
2018-12-25T11:45:31.152Z,2.43
2018-12-25T11:50:04.452Z,2.10
2018-12-25T11:52:28.186Z,2.10
2018-12-25T11:54:38.340Z,2.20
2018-12-25T11:56:54.896Z,2.60
2018-12-25T11:59:10.615Z,1.90
2018-12-25T12:01:26.315Z,2.33
2018-12-25T12:03:43.101Z,2.20
2018-12-25T12:05:59.813Z,2.40
2018-12-25T12:08:16.671Z,2.50
2018-12-25T12:10:33.547Z,2.53
2018-12-25T12:12:49.248Z,2.70
2018-12-25T12:15:05.861Z,2.10
2018-12-25T12:17:22.176Z,2.20
2018-12-25T12:19:38.686Z,2.42
2018-12-25T12:21:55.036Z,1.90
2018-12-25T12:24:10.778Z,2.10
2018-12-25T12:26:26.890Z,2.37
2018-12-25T12:28:43.574Z,2.30
2018-12-25T12:31:00.187Z,2.30
2018-12-25T12:33:15.864Z,1.72
2018-12-25T12:35:32.412Z,2.40
2018-12-25T12:37:48.716Z,2.05
2018-12-25T12:40:05.659Z,1.93
2018-12-25T12:42:21.708Z,1.65
2018-12-25T12:44:37.789Z,1.80
2018-12-25T12:46:54.159Z,2.00
2018-12-25T12:49:10.735Z,2.80
2018-12-25T12:51:27.149Z,2.10
2018-12-25T12:53:43.555Z,1.80
2018-12-25T12:55:59.951Z,2.00
2018-12-25T12:58:16.452Z,2.57
2018-12-25T13:00:32.671Z,1.80
2018-12-25T13:02:48.575Z,1.80
2018-12-25T13:05:04.559Z,1.90
2018-12-25T13:07:20.881Z,2.10
2018-12-25T13:09:37.307Z,2.20
2018-12-25T13:11:54.097Z,1.98
2018-12-25T13:14:10.320Z,1.70
2018-12-25T13:16:25.961Z,1.93
2018-12-25T13:18:42.809Z,2.50
2018-12-25T13:20:59.057Z,2.00
2018-12-25T13:23:15.561Z,1.70
2018-12-25T13:25:31.980Z,2.00
2018-12-25T13:27:47.971Z,2.10
2018-12-25T13:30:04.380Z,1.73
2018-12-25T13:32:19.944Z,2.27
2018-12-25T13:34:36.287Z,1.57
2018-12-25T13:36:53.294Z,1.50
2018-12-25T13:39:09.243Z,1.90
2018-12-25T13:41:25.362Z,1.90
2018-12-25T13:43:41.474Z,1.90
2018-12-25T13:45:58.064Z,1.70
2018-12-25T13:48:14.456Z,1.73
2018-12-25T13:50:30.548Z,1.90
2018-12-25T13:52:46.227Z,1.80
2018-12-25T13:55:03.047Z,1.90
2018-12-25T13:57:19.548Z,1.50
2018-12-25T13:59:35.847Z,1.77
2018-12-25T14:01:52.544Z,2.03
2018-12-25T14:04:08.531Z,1.40
2018-12-25T14:06:25.277Z,1.72
2018-12-25T14:08:41.512Z,1.80
2018-12-25T14:10:57.159Z,2.60
2018-12-25T14:13:13.568Z,2.00
2018-12-25T14:17:47.039Z,1.77
2018-12-25T14:20:03.721Z,1.70
2018-12-25T14:22:20.887Z,1.80
2018-12-25T14:27:59.154Z,1.80
2018-12-25T14:30:15.176Z,1.77
2018-12-25T14:32:30.802Z,1.77
2018-12-25T14:34:46.875Z,1.63
2018-12-25T14:37:03.343Z,1.70
2018-12-25T14:39:18.767Z,1.83
2018-12-25T14:41:33.261Z,1.50
2018-12-25T14:44:04.920Z,1.60
2018-12-25T14:46:21.995Z,1.60
2018-12-25T14:48:45.339Z,1.60
2018-12-25T14:51:08.945Z,1.70
2018-12-25T14:53:32.669Z,1.40
2018-12-25T14:55:56.426Z,1.52
2018-12-25T14:58:19.949Z,1.80
2018-12-25T15:00:43.866Z,1.90
2018-12-25T15:03:07.269Z,1.98
2018-12-25T15:05:30.603Z,1.90
2018-12-25T15:07:54.433Z,1.50
2018-12-25T15:10:17.570Z,1.70
2018-12-25T15:12:40.864Z,2.13
2018-12-25T15:17:33.747Z,1.97
2018-12-25T15:19:57.573Z,1.30
2018-12-25T15:24:49.936Z,1.70
2018-12-25T15:29:56.791Z,1.80
2018-12-25T15:32:22.527Z,2.30
2018-12-25T15:34:46.819Z,1.63
2018-12-25T15:42:08.872Z,2.05
2018-12-25T15:44:25.502Z,1.90
2018-12-25T15:46:41.195Z,1.70
2018-12-25T15:48:56.917Z,1.72
2018-12-25T15:51:13.389Z,2.27
2018-12-25T15:53:36.620Z,2.22
2018-12-25T15:55:47.024Z,2.37
2018-12-25T15:58:03.451Z,2.03
2018-12-25T16:00:19.411Z,2.70
2018-12-25T16:05:31.213Z,2.10
2018-12-25T16:07:47.140Z,2.43
2018-12-25T16:10:03.044Z,2.02
2018-12-25T16:12:18.880Z,2.40
2018-12-25T16:14:35.970Z,2.80
2018-12-25T16:19:09.686Z,2.60
2018-12-25T16:21:25.957Z,2.70
2018-12-25T16:23:45.550Z,2.65
2018-12-25T16:26:01.347Z,2.20
2018-12-25T16:28:17.382Z,1.90
2018-12-25T16:30:34.340Z,2.77
2018-12-25T16:33:09.379Z,2.20
2018-12-25T16:35:14.919Z,2.37
2018-12-25T16:37:31.544Z,2.30
2018-12-25T16:39:47.627Z,2.40
2018-12-25T16:42:04.207Z,2.33
2018-12-25T16:44:44.177Z,2.80
2018-12-25T16:46:44.511Z,2.13
2018-12-25T16:49:01.619Z,2.50
2018-12-25T16:51:17.953Z,4.70
2018-12-25T16:53:34.410Z,2.10
2018-12-25T16:55:51.430Z,2.17
2018-12-25T16:58:08.180Z,2.20
2018-12-25T17:00:24.269Z,2.07
2018-12-25T17:02:41.008Z,2.03
2018-12-25T17:04:56.627Z,1.90
2018-12-25T17:07:13.749Z,1.90
2018-12-25T17:09:29.639Z,1.90
2018-12-25T17:11:45.783Z,2.40
2018-12-25T17:14:01.990Z,2.10
2018-12-25T17:16:18.612Z,1.60
2018-12-25T17:18:34.748Z,2.30
2018-12-25T17:20:51.051Z,2.40
2018-12-25T17:23:06.806Z,2.03
2018-12-25T17:25:22.436Z,1.53
2018-12-25T17:27:38.187Z,1.87
2018-12-25T17:29:54.159Z,2.20
2018-12-25T17:32:10.520Z,2.00
2018-12-25T17:34:25.389Z,1.60
2018-12-25T17:36:49.848Z,2.30
2018-12-25T17:39:13.622Z,2.40
2018-12-25T17:46:36.515Z,2.35
2018-12-25T17:51:42.226Z,2.10
2018-12-25T18:01:34.865Z,2.30
2018-12-25T18:06:43.255Z,2.40
2018-12-25T18:19:29.495Z,2.10
2018-12-25T18:21:53.032Z,2.00
2018-12-25T18:29:14.680Z,1.80
2018-12-25T18:31:30.818Z,2.43
2018-12-25T18:33:46.705Z,2.97
2018-12-25T18:36:03.627Z,2.30
2018-12-25T18:38:19.723Z,2.20
2018-12-25T18:40:36.147Z,2.20
2018-12-25T18:42:52.720Z,2.30
2018-12-25T18:45:08.243Z,2.00
2018-12-25T18:47:24.456Z,2.47
2018-12-25T18:49:40.827Z,2.03
2018-12-25T18:51:56.715Z,2.20
2018-12-25T18:54:13.082Z,2.20
2018-12-25T18:56:29.428Z,2.10
2018-12-25T18:58:45.503Z,3.00
2018-12-25T19:01:02.156Z,3.00
2018-12-25T19:03:18.941Z,2.53
2018-12-25T19:05:35.838Z,2.00
2018-12-25T19:07:49.936Z,2.30
2018-12-25T19:12:42.154Z,2.50
2018-12-25T19:15:24.410Z,2.40
2018-12-25T19:25:31.214Z,2.67
2018-12-25T19:27:54.780Z,2.70
2018-12-25T19:30:11.715Z,1.77
2018-12-25T19:32:27.907Z,2.17
2018-12-25T19:34:43.627Z,2.40
2018-12-25T19:36:59.900Z,2.30
2018-12-25T19:39:16.132Z,2.35
2018-12-25T19:41:32.463Z,1.70
2018-12-25T19:43:49.307Z,2.07
2018-12-25T19:46:05.196Z,2.70
2018-12-25T19:48:20.935Z,2.10
2018-12-25T19:50:36.925Z,1.80
2018-12-25T19:52:53.749Z,2.50
2018-12-25T19:55:10.048Z,2.20
2018-12-25T19:57:26.983Z,2.47
2018-12-25T19:59:43.331Z,2.17
2018-12-25T20:01:59.610Z,2.20
2018-12-25T20:04:15.447Z,2.10
2018-12-25T20:06:31.475Z,1.73
2018-12-25T20:08:48.523Z,1.90
2018-12-25T20:11:04.239Z,1.87
2018-12-25T20:13:20.600Z,2.00
2018-12-25T20:15:36.420Z,1.92
2018-12-25T20:17:52.459Z,2.00
2018-12-25T20:20:08.528Z,2.20
2018-12-25T20:22:25.474Z,1.80
2018-12-25T20:24:41.327Z,2.40
2018-12-25T20:26:57.227Z,1.80
2018-12-25T20:29:12.874Z,2.10
2018-12-25T20:31:28.979Z,2.00
2018-12-25T20:33:45.560Z,1.83
2018-12-25T20:36:01.294Z,1.90
2018-12-25T20:38:17.871Z,1.57
2018-12-25T20:40:34.472Z,1.40
2018-12-25T20:42:50.804Z,2.17
2018-12-25T20:45:06.747Z,1.80
2018-12-25T20:47:22.848Z,2.50
2018-12-25T20:49:39.331Z,2.23
2018-12-25T20:51:55.095Z,2.50
2018-12-25T20:54:11.543Z,1.80
2018-12-25T20:56:28.063Z,2.20
2018-12-25T20:58:45.153Z,2.20
2018-12-25T21:01:01.063Z,1.85
2018-12-25T21:03:17.599Z,2.70
2018-12-25T21:13:22.264Z,1.80
2018-12-25T21:15:42.227Z,2.30
2018-12-25T21:18:36.195Z,2.20
2018-12-25T21:21:33.835Z,1.77
2018-12-25T21:24:13.993Z,2.40
2018-12-25T21:26:55.343Z,2.13
2018-12-25T21:28:59.763Z,2.22
2018-12-25T21:31:04.451Z,2.20
2018-12-25T21:33:08.531Z,2.20
2018-12-25T21:35:23.788Z,2.00
2018-12-25T21:37:28.227Z,2.22
2018-12-25T21:39:32.707Z,1.80
2018-12-25T21:41:36.901Z,2.33
2018-12-25T21:43:41.551Z,2.27
2018-12-25T21:45:46.791Z,2.60
2018-12-25T21:47:51.691Z,2.30
2018-12-25T21:49:57.003Z,2.80
2018-12-25T21:52:01.184Z,2.77
2018-12-25T21:54:06.170Z,2.90
2018-12-25T21:56:11.275Z,2.67
2018-12-25T21:58:16.531Z,3.00
2018-12-25T22:00:21.935Z,3.20
2018-12-25T22:02:26.467Z,2.93
2018-12-25T22:04:30.735Z,2.90
2018-12-25T22:06:34.955Z,3.03
2018-12-25T22:08:39.359Z,3.53
2018-12-25T22:10:44.323Z,3.03
2018-12-25T22:12:48.995Z,3.17
2018-12-25T22:14:54.183Z,3.30
2018-12-25T22:16:58.502Z,3.20
2018-12-25T22:19:02.428Z,3.10
2018-12-25T22:21:06.647Z,3.40
2018-12-25T22:23:10.591Z,2.73
2018-12-25T22:25:15.728Z,3.30
2018-12-25T22:27:19.857Z,2.80
2018-12-25T22:29:24.225Z,3.67
2018-12-25T22:31:28.856Z,3.50
2018-12-25T22:33:33.204Z,3.20
2018-12-25T22:35:37.790Z,3.07
2018-12-25T22:37:42.263Z,3.57
2018-12-25T22:39:46.559Z,3.07
2018-12-25T22:41:50.647Z,3.80
2018-12-25T22:43:54.827Z,2.73
2018-12-25T22:45:58.743Z,3.67
2018-12-25T22:48:03.578Z,3.37
2018-12-25T22:50:07.956Z,3.40
2018-12-25T22:52:12.685Z,3.40
2018-12-25T22:54:17.446Z,3.40
2018-12-25T22:56:21.592Z,2.90
2018-12-25T22:58:26.928Z,3.27
2018-12-25T23:00:32.358Z,3.53
2018-12-25T23:02:37.167Z,4.27
2018-12-25T23:04:41.299Z,3.93
2018-12-25T23:06:46.054Z,3.27
2018-12-25T23:08:50.791Z,3.80
2018-12-25T23:10:54.695Z,4.30
2018-12-25T23:12:59.060Z,3.27
2018-12-25T23:15:02.964Z,3.17
2018-12-25T23:17:07.595Z,3.67
2018-12-25T23:19:12.109Z,5.22
2018-12-25T23:21:16.623Z,4.30
2018-12-25T23:23:21.126Z,2.98
2018-12-25T23:25:25.526Z,3.60
2018-12-25T23:27:30.481Z,3.40
2018-12-25T23:29:35.144Z,3.77
2018-12-25T23:31:39.925Z,2.80
2018-12-25T23:33:44.051Z,4.00
2018-12-25T23:35:48.851Z,4.03
2018-12-25T23:37:53.300Z,4.60
2018-12-25T23:39:58.040Z,3.92
2018-12-25T23:42:02.725Z,4.10
2018-12-25T23:44:07.462Z,3.60
2018-12-25T23:46:11.903Z,4.70
2018-12-25T23:48:16.290Z,4.70
2018-12-25T23:50:20.611Z,3.97
2018-12-25T23:52:24.967Z,4.73
2018-12-25T23:54:29.662Z,4.70
2018-12-25T23:56:33.966Z,4.70
2018-12-25T23:58:38.349Z,3.93
